Time;durP1;ratioP1;P1;durP2;ratioP2;P2;SDS_P1;SDS_P2;PMS_P1;PMS_P2;Temp;Humidity;BMP_temperature;BMP_pressure;BME280_temperature;BME280_humidity;BME280_pressure;Samples;Min_cycle;Max_cycle;Signal;HPM_P1;HPM_P2
2022/04/12 00:01:19;;;;;;;11.85;2.78;;;;;;;;;;5038246;28;20335;-61
2022/04/12 00:03:53;;;;;;;8.88;2.55;;;;;;;;;;5039833;28;20040;-61
2022/04/12 00:06:19;;;;;;;10.55;2.50;;;;;;;;;;5039755;28;20136;-61
2022/04/12 00:08:46;;;;;;;15.95;2.40;;;;;;;;;;5042196;28;20053;-61
2022/04/12 00:11:13;;;;;;;14.63;2.92;;;;;;;;;;5035417;28;20088;-61
2022/04/12 00:13:40;;;;;;;21.55;2.35;;;;;;;;;;5042877;28;20088;-61
2022/04/12 00:16:06;;;;;;;15.70;2.50;;;;;;;;;;5040309;28;20512;-61
2022/04/12 00:21:22;;;;;;;17.02;2.67;;;;;;;;;;5038715;28;20076;-61
2022/04/12 00:23:52;;;;;;;11.77;2.53;;;;;;;;;;5039929;28;20721;-61
2022/04/12 00:26:19;;;;;;;11.52;2.63;;;;;;;;;;5041277;28;20478;-61
2022/04/12 00:28:45;;;;;;;11.40;2.35;;;;;;;;;;5038407;28;20751;-61
2022/04/12 00:31:21;;;;;;;11.52;2.00;;;;;;;;;;5035575;28;20453;-61
2022/04/12 00:33:47;;;;;;;12.90;2.85;;;;;;;;;;5030604;28;20520;-61
2022/04/12 00:36:14;;;;;;;15.48;2.92;;;;;;;;;;5033989;28;20592;-61
2022/04/12 00:38:41;;;;;;;11.60;2.58;;;;;;;;;;5036931;28;20474;-61
2022/04/12 00:41:10;;;;;;;10.27;2.50;;;;;;;;;;5041498;28;20080;-61
2022/04/12 00:43:38;;;;;;;10.93;2.35;;;;;;;;;;5037343;28;20051;-61
2022/04/12 00:46:05;;;;;;;16.15;2.83;;;;;;;;;;5037047;28;20073;-61
2022/04/12 00:48:33;;;;;;;7.18;1.90;;;;;;;;;;5033861;28;20056;-61
2022/04/12 00:51:00;;;;;;;15.32;2.40;;;;;;;;;;5034641;28;20127;-61
2022/04/12 00:53:27;;;;;;;8.73;2.50;;;;;;;;;;5036245;28;20088;-61
2022/04/12 00:55:54;;;;;;;13.15;2.88;;;;;;;;;;5034602;28;20044;-61
2022/04/12 00:58:20;;;;;;;8.65;2.55;;;;;;;;;;5034497;28;20080;-61
2022/04/12 01:00:49;;;;;;;14.05;3.22;;;;;;;;;;5035935;28;20131;-61
2022/04/12 01:03:16;;;;;;;9.47;1.97;;;;;;;;;;5040788;28;20045;-61
2022/04/12 01:05:43;;;;;;;12.50;2.80;;;;;;;;;;5041399;28;20780;-61
2022/04/12 01:08:12;;;;;;;13.20;2.42;;;;;;;;;;5041638;28;20136;-61
2022/04/12 01:10:39;;;;;;;10.43;2.50;;;;;;;;;;5043897;28;20081;-61
2022/04/12 01:13:05;;;;;;;10.90;2.55;;;;;;;;;;5045930;28;20072;-61
2022/04/12 01:15:35;;;;;;;19.08;3.42;;;;;;;;;;5042661;28;20056;-61
2022/04/12 01:18:03;;;;;;;20.45;2.50;;;;;;;;;;5043355;28;20060;-61
2022/04/12 01:20:30;;;;;;;8.00;2.70;;;;;;;;;;5036860;28;20466;-61
2022/04/12 01:23:10;;;;;;;9.75;2.40;;;;;;;;;;5041617;28;20424;-61
2022/04/12 01:25:37;;;;;;;12.45;2.67;;;;;;;;;;5043685;28;20139;-60
2022/04/12 01:28:11;;;;;;;13.15;2.42;;;;;;;;;;5042070;28;20087;-61
2022/04/12 01:30:38;;;;;;;8.73;2.40;;;;;;;;;;5041301;28;20096;-60
2022/04/12 01:33:04;;;;;;;12.45;2.47;;;;;;;;;;5042568;28;20133;-61
2022/04/12 01:35:32;;;;;;;12.38;4.75;;;;;;;;;;5056038;28;20087;-61
2022/04/12 01:37:58;;;;;;;11.52;2.22;;;;;;;;;;5039700;28;20081;-61
2022/04/12 01:40:25;;;;;;;13.60;2.50;;;;;;;;;;5041149;28;20508;-60
2022/04/12 01:42:52;;;;;;;15.70;3.33;;;;;;;;;;5041148;28;20491;-60
2022/04/12 01:45:20;;;;;;;10.00;2.28;;;;;;;;;;5040601;28;20501;-60
2022/04/12 01:47:47;;;;;;;20.10;2.67;;;;;;;;;;5031952;28;20088;-60
2022/04/12 01:50:20;;;;;;;16.10;2.45;;;;;;;;;;5042200;28;20160;-61
2022/04/12 01:52:46;;;;;;;22.20;3.00;;;;;;;;;;5042194;28;20081;-60
2022/04/12 01:55:14;;;;;;;16.52;2.60;;;;;;;;;;5042288;28;20474;-60
2022/04/12 01:57:47;;;;;;;11.90;2.60;;;;;;;;;;5041881;28;20084;-60
2022/04/12 02:00:13;;;;;;;16.37;2.93;;;;;;;;;;5041521;28;20148;-60
2022/04/12 02:02:40;;;;;;;10.00;2.78;;;;;;;;;;5040066;28;20085;-61
2022/04/12 02:05:10;;;;;;;8.98;2.63;;;;;;;;;;5038714;28;20080;-60
2022/04/12 02:07:36;;;;;;;21.13;2.97;;;;;;;;;;5040614;28;20132;-60
2022/04/12 02:10:04;;;;;;;18.88;2.83;;;;;;;;;;5041599;28;20087;-60
2022/04/12 02:12:37;;;;;;;13.70;2.88;;;;;;;;;;5045170;28;20096;-60
2022/04/12 02:15:04;;;;;;;12.43;2.53;;;;;;;;;;5042246;28;20153;-60
2022/04/12 02:17:30;;;;;;;22.83;3.20;;;;;;;;;;5040313;28;20966;-60
2022/04/12 02:19:57;;;;;;;12.13;3.05;;;;;;;;;;5042502;28;20132;-60
2022/04/12 02:22:23;;;;;;;14.02;2.03;;;;;;;;;;5044922;28;20144;-60
2022/04/12 02:24:49;;;;;;;16.33;3.15;;;;;;;;;;5042720;28;20122;-61
2022/04/12 02:27:23;;;;;;;16.15;2.42;;;;;;;;;;5040772;28;20137;-61
2022/04/12 02:29:49;;;;;;;14.07;2.28;;;;;;;;;;5036039;28;20521;-60
2022/04/12 02:32:16;;;;;;;14.43;2.50;;;;;;;;;;5042559;28;20041;-60
2022/04/12 02:34:44;;;;;;;10.68;4.15;;;;;;;;;;5038005;28;20132;-60
2022/04/12 02:37:10;;;;;;;23.15;5.47;;;;;;;;;;5042477;28;20131;-60
2022/04/12 02:39:37;;;;;;;15.15;3.72;;;;;;;;;;5037961;28;20135;-60
2022/04/12 02:42:03;;;;;;;16.52;3.67;;;;;;;;;;5039185;28;20119;-60
2022/04/12 02:44:30;;;;;;;21.73;4.63;;;;;;;;;;5042869;28;20122;-60
2022/04/12 02:46:56;;;;;;;22.67;3.75;;;;;;;;;;5041379;28;20127;-60
2022/04/12 02:49:23;;;;;;;4.97;1.90;;;;;;;;;;5037648;28;20093;-60
2022/04/12 02:51:51;;;;;;;13.83;2.83;;;;;;;;;;5041111;28;20378;-60
2022/04/12 02:54:18;;;;;;;24.42;3.45;;;;;;;;;;5037795;28;20118;-60
2022/04/12 02:56:51;;;;;;;18.13;3.72;;;;;;;;;;5037860;28;20132;-60
2022/04/12 02:59:17;;;;;;;12.13;2.90;;;;;;;;;;5042095;28;20041;-60
2022/04/12 03:01:44;;;;;;;16.80;3.15;;;;;;;;;;5038207;28;20077;-60
2022/04/12 03:04:11;;;;;;;21.08;3.45;;;;;;;;;;5044307;28;20136;-61
2022/04/12 03:06:37;;;;;;;18.38;3.47;;;;;;;;;;5039788;28;20118;-60
2022/04/12 03:09:04;;;;;;;27.70;3.95;;;;;;;;;;5039484;28;20077;-60
2022/04/12 03:11:30;;;;;;;19.92;3.97;;;;;;;;;;5037124;28;20088;-60
2022/04/12 03:13:57;;;;;;;31.53;4.80;;;;;;;;;;5042111;28;20081;-60
2022/04/12 03:16:23;;;;;;;19.02;3.70;;;;;;;;;;5039133;28;20084;-60
2022/04/12 03:18:52;;;;;;;22.75;3.55;;;;;;;;;;5038562;28;20064;-60
2022/04/12 03:21:18;;;;;;;7.93;2.40;;;;;;;;;;5039586;28;20080;-60
2022/04/12 03:23:45;;;;;;;19.60;3.75;;;;;;;;;;5041200;28;20135;-60
2022/04/12 03:26:11;;;;;;;32.10;3.67;;;;;;;;;;5040419;28;20128;-60
2022/04/12 03:28:38;;;;;;;36.97;3.90;;;;;;;;;;5040556;28;20398;-61
2022/04/12 03:31:04;;;;;;;16.65;3.25;;;;;;;;;;5041057;28;20124;-60
2022/04/12 03:33:31;;;;;;;23.75;4.38;;;;;;;;;;5038919;28;20053;-60
2022/04/12 03:35:58;;;;;;;18.02;3.75;;;;;;;;;;5039695;28;20088;-60
2022/04/12 03:38:25;;;;;;;17.92;3.85;;;;;;;;;;5039866;28;20140;-60
2022/04/12 03:40:52;;;;;;;16.88;3.10;;;;;;;;;;5037265;28;20081;-60
2022/04/12 03:43:18;;;;;;;13.60;2.53;;;;;;;;;;5038636;28;20128;-60
2022/04/12 03:45:45;;;;;;;12.70;3.55;;;;;;;;;;5038426;28;20105;-60
2022/04/12 03:48:18;;;;;;;16.23;4.00;;;;;;;;;;5038661;28;20057;-60
2022/04/12 03:50:45;;;;;;;26.35;3.70;;;;;;;;;;5041288;28;20420;-60
2022/04/12 03:53:11;;;;;;;20.65;3.60;;;;;;;;;;5039046;28;20076;-60
2022/04/12 03:55:39;;;;;;;23.20;2.33;;;;;;;;;;5039084;28;20128;-60
2022/04/12 03:58:07;;;;;;;16.52;3.05;;;;;;;;;;5038468;28;20079;-60
2022/04/12 04:00:34;;;;;;;17.20;3.22;;;;;;;;;;5040797;28;20144;-60
2022/04/12 04:03:01;;;;;;;15.20;3.08;;;;;;;;;;5041348;28;20063;-60
2022/04/12 04:05:28;;;;;;;17.73;3.17;;;;;;;;;;5030132;28;20111;-60
2022/04/12 04:07:54;;;;;;;25.17;3.77;;;;;;;;;;5040894;28;20088;-60
2022/04/12 04:10:22;;;;;;;;;;;;;;;;;;5036521;28;20304;-60
2022/04/12 04:12:48;;;;;;;18.57;3.87;;;;;;;;;;5039181;28;20016;-60
2022/04/12 04:15:15;;;;;;;17.23;2.97;;;;;;;;;;5041720;28;20049;-60
2022/04/12 04:17:43;;;;;;;12.15;3.47;;;;;;;;;;5039094;28;20077;-60
2022/04/12 04:20:10;;;;;;;15.75;3.60;;;;;;;;;;5040238;28;20153;-60
2022/04/12 04:22:37;;;;;;;;;;;;;;;;;;5040628;28;20132;-60
2022/04/12 04:25:03;;;;;;;25.17;3.15;;;;;;;;;;5035482;28;19968;-60
2022/04/12 04:27:32;;;;;;;14.68;2.78;;;;;;;;;;5038854;28;20061;-60
2022/04/12 04:29:59;;;;;;;17.02;2.85;;;;;;;;;;5041853;28;20165;-60
2022/04/12 04:32:27;;;;;;;13.77;3.08;;;;;;;;;;5036217;28;20614;-60
2022/04/12 04:34:53;;;;;;;16.65;3.40;;;;;;;;;;5040553;28;20071;-60
2022/04/12 04:37:20;;;;;;;12.77;2.88;;;;;;;;;;5037545;28;20077;-60
2022/04/12 04:39:47;;;;;;;11.80;2.58;;;;;;;;;;5037636;28;20077;-60
2022/04/12 04:42:13;;;;;;;16.25;3.50;;;;;;;;;;5034699;28;20144;-60
2022/04/12 04:44:39;;;;;;;13.75;3.17;;;;;;;;;;5039863;28;20136;-60
2022/04/12 04:47:06;;;;;;;19.05;3.33;;;;;;;;;;5038150;28;20330;-60
2022/04/12 04:49:33;;;;;;;19.50;3.22;;;;;;;;;;5036036;28;20140;-61
2022/04/12 04:51:59;;;;;;;21.30;3.40;;;;;;;;;;5038061;28;20579;-60
2022/04/12 04:54:26;;;;;;;11.70;2.33;;;;;;;;;;5037306;28;20083;-60
2022/04/12 04:56:52;;;;;;;12.13;2.95;;;;;;;;;;5037828;28;20140;-61
2022/04/12 04:59:19;;;;;;;16.83;4.03;;;;;;;;;;5039273;28;20083;-60
2022/04/12 05:01:51;;;;;;;26.67;4.13;;;;;;;;;;5035716;28;20056;-60
2022/04/12 05:04:18;;;;;;;17.45;3.97;;;;;;;;;;5038515;28;20054;-61
2022/04/12 05:06:45;;;;;;;15.02;2.33;;;;;;;;;;5037289;28;20502;-61
2022/04/12 05:09:11;;;;;;;10.30;3.20;;;;;;;;;;5035485;28;20106;-61
2022/04/12 05:11:38;;;;;;;10.65;3.20;;;;;;;;;;5036712;28;20085;-61
2022/04/12 05:14:11;;;;;;;14.55;3.13;;;;;;;;;;5039640;28;20080;-61
2022/04/12 05:16:37;;;;;;;16.30;3.70;;;;;;;;;;5041172;28;20180;-60
2022/04/12 05:19:04;;;;;;;10.60;3.17;;;;;;;;;;5039357;28;20081;-61
2022/04/12 05:21:34;;;;;;;17.13;3.72;;;;;;;;;;5038923;28;20084;-61
2022/04/12 05:24:00;;;;;;;14.82;3.15;;;;;;;;;;5038308;28;20079;-61
2022/04/12 05:26:27;;;;;;;25.17;4.93;;;;;;;;;;5036330;28;20132;-61
2022/04/12 05:28:53;;;;;;;12.75;3.25;;;;;;;;;;5041677;28;20136;-61
2022/04/12 05:31:20;;;;;;;14.60;3.65;;;;;;;;;;5037030;28;20149;-61
2022/04/12 05:33:58;;;;;;;16.48;3.72;;;;;;;;;;5041386;28;20057;-61
2022/04/12 05:36:25;;;;;;;22.63;4.15;;;;;;;;;;5041428;28;20140;-60
2022/04/12 05:38:51;;;;;;;21.90;3.03;;;;;;;;;;5037701;28;20141;-60
2022/04/12 05:41:18;;;;;;;18.67;3.23;;;;;;;;;;5034081;28;20489;-61
2022/04/12 05:43:44;;;;;;;10.40;2.38;;;;;;;;;;5038076;28;20050;-61
2022/04/12 05:46:11;;;;;;;24.38;3.58;;;;;;;;;;5038185;28;20569;-61
2022/04/12 05:48:37;;;;;;;10.75;2.70;;;;;;;;;;5035814;28;20049;-61
2022/04/12 05:51:03;;;;;;;12.57;3.10;;;;;;;;;;5040153;28;20136;-61
2022/04/12 05:53:30;;;;;;;13.10;3.60;;;;;;;;;;5040450;28;20076;-61
2022/04/12 05:55:57;;;;;;;12.63;3.30;;;;;;;;;;5040630;28;20615;-62
2022/04/12 05:58:24;;;;;;;11.67;2.63;;;;;;;;;;5045851;28;20053;-61
2022/04/12 06:00:51;;;;;;;20.60;3.60;;;;;;;;;;5045357;28;20088;-61
2022/04/12 06:03:21;;;;;;;14.77;3.38;;;;;;;;;;5046312;28;20091;-61
2022/04/12 06:05:49;;;;;;;12.33;3.07;;;;;;;;;;5038386;28;20077;-62
2022/04/12 06:08:15;;;;;;;12.05;3.40;;;;;;;;;;5035001;28;20382;-62
2022/04/12 06:10:42;;;;;;;23.85;3.50;;;;;;;;;;5043202;28;20478;-62
2022/04/12 06:13:08;;;;;;;18.77;3.20;;;;;;;;;;5040460;28;20151;-62
2022/04/12 06:15:37;;;;;;;16.02;3.22;;;;;;;;;;5041404;28;20045;-62
2022/04/12 06:18:06;;;;;;;13.55;3.20;;;;;;;;;;5036420;28;20513;-62
2022/04/12 06:20:33;;;;;;;15.02;3.20;;;;;;;;;;5039526;28;20089;-62
2022/04/12 06:22:59;;;;;;;11.27;2.75;;;;;;;;;;5043604;28;20052;-62
2022/04/12 06:25:26;;;;;;;18.13;2.80;;;;;;;;;;5041287;28;20132;-62
2022/04/12 06:27:52;;;;;;;9.17;2.97;;;;;;;;;;5042959;28;20460;-63
2022/04/12 06:30:20;;;;;;;11.07;2.47;;;;;;;;;;5045800;28;20666;-63
2022/04/12 06:32:47;;;;;;;;;;;;;;;;;;5041411;28;20136;-63
2022/04/12 06:35:14;;;;;;;26.85;3.38;;;;;;;;;;5041453;28;20349;-62
2022/04/12 06:37:42;;;;;;;20.35;3.33;;;;;;;;;;5042167;28;20144;-63
2022/04/12 06:40:09;;;;;;;11.73;2.83;;;;;;;;;;5040426;28;20087;-63
2022/04/12 06:42:36;;;;;;;16.98;3.75;;;;;;;;;;5042011;28;20088;-63
2022/04/12 06:45:05;;;;;;;15.23;2.90;;;;;;;;;;5042312;28;20067;-64
2022/04/12 06:47:35;;;;;;;24.73;3.00;;;;;;;;;;5036437;28;20103;-64
2022/04/12 06:50:02;;;;;;;14.25;3.58;;;;;;;;;;5039931;28;20113;-64
2022/04/12 06:52:28;;;;;;;8.30;2.50;;;;;;;;;;5039179;28;20099;-63
2022/04/12 06:54:55;;;;;;;12.10;3.10;;;;;;;;;;5040082;28;20175;-64
2022/04/12 06:57:21;;;;;;;17.38;3.45;;;;;;;;;;5038787;28;20677;-64
2022/04/12 06:59:52;;;;;;;16.90;3.40;;;;;;;;;;5041994;28;20120;-64
2022/04/12 07:02:18;;;;;;;14.90;3.45;;;;;;;;;;5039438;28;20136;-64
2022/04/12 07:04:45;;;;;;;12.70;3.23;;;;;;;;;;5042352;28;20051;-65
2022/04/12 07:07:18;;;;;;;11.55;2.97;;;;;;;;;;5037643;28;20367;-65
2022/04/12 07:09:44;;;;;;;11.68;2.63;;;;;;;;;;5039443;28;20132;-65
2022/04/12 07:12:11;;;;;;;15.85;3.00;;;;;;;;;;5039902;28;20080;-65
2022/04/12 07:14:40;;;;;;;14.82;2.72;;;;;;;;;;5040677;28;20128;-66
2022/04/12 07:17:06;;;;;;;10.32;2.75;;;;;;;;;;5027177;28;20132;-66
2022/04/12 07:19:33;;;;;;;11.45;2.28;;;;;;;;;;5042489;28;20137;-66
2022/04/12 07:21:59;;;;;;;14.40;2.38;;;;;;;;;;5040597;28;20132;-66
2022/04/12 07:24:25;;;;;;;10.85;2.30;;;;;;;;;;5039419;28;20121;-67
2022/04/12 07:26:52;;;;;;;12.75;3.03;;;;;;;;;;5040243;28;20053;-67
2022/04/12 07:29:19;;;;;;;13.07;2.70;;;;;;;;;;5024478;28;20132;-67
2022/04/12 07:31:45;;;;;;;15.23;3.22;;;;;;;;;;5038710;28;20092;-66
2022/04/12 07:34:12;;;;;;;10.88;2.20;;;;;;;;;;5037189;28;20048;-67
2022/04/12 07:36:43;;;;;;;24.80;2.65;;;;;;;;;;5037434;28;20136;-66
2022/04/12 07:39:16;;;;;;;12.02;2.22;;;;;;;;;;5039751;28;20118;-66
2022/04/12 07:41:43;;;;;;;9.43;2.30;;;;;;;;;;5039140;28;20068;-66
2022/04/12 07:44:09;;;;;;;6.80;1.88;;;;;;;;;;5044207;28;20048;-66
2022/04/12 07:46:36;;;;;;;12.38;2.50;;;;;;;;;;5040600;28;20099;-66
2022/04/12 07:49:05;;;;;;;14.68;2.20;;;;;;;;;;5040526;28;20045;-67
2022/04/12 07:51:31;;;;;;;10.80;2.42;;;;;;;;;;5040173;28;20946;-67
2022/04/12 07:53:58;;;;;;;6.03;1.67;;;;;;;;;;5038701;28;20140;-66
2022/04/12 07:56:26;;;;;;;13.77;2.22;;;;;;;;;;5038833;28;20076;-66
2022/04/12 07:58:53;;;;;;;6.03;2.10;;;;;;;;;;5036445;28;20068;-67
2022/04/12 08:01:19;;;;;;;9.48;2.08;;;;;;;;;;5038173;28;20136;-67
2022/04/12 08:03:47;;;;;;;10.02;2.28;;;;;;;;;;5037940;28;20093;-65
2022/04/12 08:06:13;;;;;;;13.07;2.92;;;;;;;;;;5035894;28;20148;-65
2022/04/12 08:08:40;;;;;;;8.20;2.47;;;;;;;;;;5039948;28;20100;-65
2022/04/12 08:11:13;;;;;;;9.68;2.30;;;;;;;;;;5040666;28;20095;-65
2022/04/12 08:13:40;;;;;;;9.07;1.90;;;;;;;;;;5040756;28;20045;-65
2022/04/12 08:16:08;;;;;;;6.35;2.15;;;;;;;;;;5039256;28;20049;-67
2022/04/12 08:18:35;;;;;;;6.82;1.55;;;;;;;;;;5036565;28;20052;-67
2022/04/12 08:21:01;;;;;;;4.80;1.65;;;;;;;;;;5039790;28;20045;-66
2022/04/12 08:23:29;;;;;;;3.85;1.65;;;;;;;;;;5037221;28;20574;-66
2022/04/12 08:25:58;;;;;;;6.93;1.60;;;;;;;;;;5035894;28;20075;-66
2022/04/12 08:28:24;;;;;;;6.45;1.80;;;;;;;;;;5037752;28;20063;-66
2022/04/12 08:30:51;;;;;;;6.00;2.00;;;;;;;;;;5039907;28;20052;-65
2022/04/12 08:33:19;;;;;;;4.03;1.35;;;;;;;;;;5035432;28;20288;-66
2022/04/12 08:35:46;;;;;;;5.85;1.35;;;;;;;;;;5041094;28;20144;-66
2022/04/12 08:38:12;;;;;;;4.93;1.50;;;;;;;;;;5038117;28;20092;-65
2022/04/12 08:40:40;;;;;;;8.07;1.87;;;;;;;;;;5039598;28;20092;-66
2022/04/12 08:43:07;;;;;;;4.80;1.55;;;;;;;;;;5039386;28;20103;-66
2022/04/12 08:45:35;;;;;;;3.85;1.60;;;;;;;;;;5040672;28;20523;-67
2022/04/12 08:48:02;;;;;;;3.78;1.42;;;;;;;;;;5039867;28;20124;-67
2022/04/12 08:50:28;;;;;;;7.55;1.60;;;;;;;;;;5035448;28;20144;-67
2022/04/12 08:52:55;;;;;;;3.58;1.50;;;;;;;;;;5036780;28;20057;-66
2022/04/12 08:55:21;;;;;;;6.10;1.50;;;;;;;;;;5039464;28;20136;-67
2022/04/12 08:57:48;;;;;;;4.38;1.35;;;;;;;;;;5038323;28;20087;-67
2022/04/12 09:00:14;;;;;;;4.65;1.55;;;;;;;;;;5036917;28;20157;-67
2022/04/12 09:02:50;;;;;;;4.47;1.58;;;;;;;;;;5039258;28;20052;-67
2022/04/12 09:05:16;;;;;;;6.45;1.75;;;;;;;;;;5039235;28;20084;-67
2022/04/12 09:07:47;;;;;;;4.28;1.27;;;;;;;;;;5037749;28;20073;-67
2022/04/12 09:10:14;;;;;;;2.40;0.95;;;;;;;;;;5041008;28;20119;-67
2022/04/12 09:12:41;;;;;;;3.17;1.30;;;;;;;;;;5033774;28;20136;-67
2022/04/12 09:15:11;;;;;;;4.30;1.50;;;;;;;;;;5039133;28;20053;-68
2022/04/12 09:17:41;;;;;;;4.63;1.45;;;;;;;;;;5037212;28;20509;-67
2022/04/12 09:20:12;;;;;;;3.42;1.60;;;;;;;;;;5038778;28;20077;-67
2022/04/12 09:22:39;;;;;;;4.03;1.50;;;;;;;;;;5040053;28;20139;-67
2022/04/12 09:25:09;;;;;;;4.30;1.30;;;;;;;;;;5039016;28;20052;-67
2022/04/12 09:27:37;;;;;;;3.35;1.33;;;;;;;;;;5041981;28;20049;-68
2022/04/12 09:30:08;;;;;;;3.95;1.33;;;;;;;;;;5040566;28;20076;-68
2022/04/12 09:32:45;;;;;;;3.10;1.30;;;;;;;;;;5044425;28;20049;-70
2022/04/12 09:35:18;;;;;;;4.93;1.50;;;;;;;;;;5042951;28;20091;-71
2022/04/12 09:37:45;;;;;;;2.90;1.10;;;;;;;;;;5041956;28;20515;-69
2022/04/12 09:40:12;;;;;;;1.73;0.90;;;;;;;;;;5042808;28;20085;-70
2022/04/12 09:42:55;;;;;;;4.47;1.38;;;;;;;;;;5044513;28;20072;-70
2022/04/12 09:45:23;;;;;;;3.50;1.00;;;;;;;;;;5039967;28;20081;-70
2022/04/12 09:47:57;;;;;;;3.42;0.93;;;;;;;;;;5040874;28;20498;-70
2022/04/12 09:50:43;;;;;;;2.33;1.25;;;;;;;;;;5040783;28;20067;-69
2022/04/12 09:53:10;;;;;;;3.08;1.10;;;;;;;;;;5040627;28;20048;-70
2022/04/12 09:55:40;;;;;;;4.68;1.80;;;;;;;;;;5052931;28;20130;-70
2022/04/12 09:58:13;;;;;;;4.55;1.48;;;;;;;;;;5040134;28;20060;-70
2022/04/12 10:00:41;;;;;;;3.97;1.30;;;;;;;;;;5040481;28;20393;-72
2022/04/12 10:03:10;;;;;;;3.22;1.10;;;;;;;;;;5041340;28;20106;-72
2022/04/12 10:05:36;;;;;;;3.83;1.52;;;;;;;;;;5042806;28;20061;-70
2022/04/12 10:08:04;;;;;;;3.10;1.10;;;;;;;;;;5042569;28;20135;-70
2022/04/12 10:10:31;;;;;;;4.93;1.40;;;;;;;;;;5041177;28;20088;-70
2022/04/12 10:12:57;;;;;;;4.43;1.47;;;;;;;;;;5042287;28;20508;-72
2022/04/12 10:15:27;;;;;;;5.10;1.75;;;;;;;;;;5036833;28;20060;-70
2022/04/12 10:17:54;;;;;;;5.03;1.63;;;;;;;;;;5041549;28;20045;-71
2022/04/12 10:20:21;;;;;;;5.30;1.60;;;;;;;;;;5040532;28;20127;-69
2022/04/12 10:22:56;;;;;;;2.70;1.10;;;;;;;;;;5040219;28;20123;-71
2022/04/12 10:25:23;;;;;;;5.53;1.98;;;;;;;;;;5039771;28;20046;-71
2022/04/12 10:27:52;;;;;;;7.72;1.90;;;;;;;;;;5042253;28;20084;-71
2022/04/12 10:30:21;;;;;;;3.63;1.20;;;;;;;;;;5041431;28;20132;-71
2022/04/12 10:33:00;;;;;;;3.47;1.42;;;;;;;;;;5042755;28;20501;-72
2022/04/12 10:35:59;;;;;;;4.43;1.30;;;;;;;;;;5041535;28;20064;-72
2022/04/12 10:38:27;;;;;;;2.30;1.00;;;;;;;;;;5038562;28;20091;-71
2022/04/12 10:40:54;;;;;;;2.42;1.08;;;;;;;;;;5035454;28;20057;-72
2022/04/12 10:43:22;;;;;;;4.78;1.50;;;;;;;;;;5043122;28;20405;-71
2022/04/12 10:45:49;;;;;;;4.40;1.48;;;;;;;;;;5041310;28;20095;-72
2022/04/12 10:48:21;;;;;;;3.88;1.30;;;;;;;;;;5040001;28;20092;-72
2022/04/12 10:50:52;;;;;;;3.05;1.13;;;;;;;;;;5042405;28;20128;-72
2022/04/12 10:53:42;;;;;;;5.80;1.45;;;;;;;;;;5037160;28;20041;-72
2022/04/12 10:56:16;;;;;;;4.38;1.25;;;;;;;;;;5039965;28;20077;-72
2022/04/12 10:58:43;;;;;;;4.85;2.17;;;;;;;;;;5042901;28;20084;-72
2022/04/12 11:01:28;;;;;;;4.00;1.10;;;;;;;;;;5031703;28;20053;-72
2022/04/12 11:03:56;;;;;;;4.50;1.55;;;;;;;;;;5043069;28;20055;-72
2022/04/12 11:06:23;;;;;;;3.13;1.33;;;;;;;;;;5036077;28;20481;-72
2022/04/12 11:08:51;;;;;;;4.18;1.20;;;;;;;;;;5041476;28;20073;-72
2022/04/12 11:11:22;;;;;;;3.30;1.15;;;;;;;;;;5038560;28;20085;-73
2022/04/12 11:13:49;;;;;;;4.95;1.35;;;;;;;;;;5044634;28;20122;-72
2022/04/12 11:16:20;;;;;;;2.80;1.20;;;;;;;;;;5040037;28;20057;-72
2022/04/12 11:18:50;;;;;;;1.88;1.30;;;;;;;;;;5039432;28;20064;-72
2022/04/12 11:21:20;;;;;;;2.40;1.40;;;;;;;;;;5041099;28;20574;-72
2022/04/12 11:23:52;;;;;;;3.70;1.15;;;;;;;;;;5040814;28;20564;-72
2022/04/12 11:26:38;;;;;;;5.35;1.08;;;;;;;;;;5037627;28;20108;-71
2022/04/12 11:29:12;;;;;;;2.72;1.20;;;;;;;;;;5040164;28;20128;-72
2022/04/12 11:31:39;;;;;;;3.75;1.27;;;;;;;;;;5042015;28;20085;-72
2022/04/12 11:34:06;;;;;;;2.83;1.23;;;;;;;;;;5038707;28;20504;-72
2022/04/12 11:36:34;;;;;;;3.70;1.10;;;;;;;;;;5038645;28;20081;-72
2022/04/12 11:39:01;;;;;;;2.00;1.10;;;;;;;;;;5038863;28;20544;-72
2022/04/12 11:41:28;;;;;;;3.63;1.15;;;;;;;;;;5039257;28;20092;-73
2022/04/12 11:44:04;;;;;;;3.58;1.23;;;;;;;;;;5041533;28;20132;-72
2022/04/12 11:46:32;;;;;;;2.15;1.33;;;;;;;;;;5039042;28;20131;-72
2022/04/12 11:49:05;;;;;;;2.63;1.08;;;;;;;;;;5035516;28;20088;-73
2022/04/12 11:51:36;;;;;;;3.33;1.02;;;;;;;;;;5038765;28;20065;-72
2022/04/12 11:54:18;;;;;;;2.10;0.95;;;;;;;;;;5040699;28;20057;-72
2022/04/12 11:56:44;;;;;;;6.63;0.98;;;;;;;;;;5042539;28;20136;-72
2022/04/12 11:59:11;;;;;;;3.15;1.17;;;;;;;;;;5045596;28;20134;-71
2022/04/12 12:01:37;;;;;;;3.03;1.10;;;;;;;;;;5040953;28;20091;-72
2022/04/12 12:04:04;;;;;;;3.08;1.20;;;;;;;;;;5039807;28;20063;-72
2022/04/12 12:06:54;;;;;;;2.58;1.10;;;;;;;;;;5039795;28;20047;-72
2022/04/12 12:09:21;;;;;;;2.60;1.00;;;;;;;;;;5040619;28;20093;-71
2022/04/12 12:11:58;;;;;;;2.97;1.33;;;;;;;;;;5039575;28;20084;-72
2022/04/12 12:14:27;;;;;;;1.52;0.85;;;;;;;;;;5039147;28;20124;-72
2022/04/12 12:17:00;;;;;;;2.78;1.08;;;;;;;;;;5041167;28;20137;-72
2022/04/12 12:19:38;;;;;;;2.95;1.30;;;;;;;;;;5039626;28;20081;-72
2022/04/12 12:22:05;;;;;;;2.05;1.00;;;;;;;;;;5039100;28;20092;-72
2022/04/12 12:24:37;;;;;;;3.00;1.20;;;;;;;;;;5041003;28;20139;-71
2022/04/12 12:27:15;;;;;;;3.80;1.70;;;;;;;;;;5042444;28;20048;-71
2022/04/12 12:29:43;;;;;;;2.33;1.00;;;;;;;;;;5038502;28;20049;-71
2022/04/12 12:32:15;;;;;;;1.20;0.80;;;;;;;;;;5038839;28;20137;-71
2022/04/12 12:34:44;;;;;;;4.38;1.30;;;;;;;;;;5035465;28;20152;-71
2022/04/12 12:37:11;;;;;;;2.33;0.82;;;;;;;;;;5040547;28;20516;-71
2022/04/12 12:39:41;;;;;;;3.45;1.30;;;;;;;;;;5042657;28;20041;-71
2022/04/12 12:42:08;;;;;;;2.60;1.35;;;;;;;;;;5034668;28;20728;-72
2022/04/12 12:44:36;;;;;;;2.28;1.23;;;;;;;;;;5038020;28;20045;-72
2022/04/12 12:47:04;;;;;;;3.80;0.90;;;;;;;;;;5039842;28;20478;-72
2022/04/12 12:49:38;;;;;;;1.33;0.90;;;;;;;;;;5035727;28;20538;-72
2022/04/12 12:52:09;;;;;;;1.88;0.80;;;;;;;;;;5037238;28;20064;-72
2022/04/12 12:54:36;;;;;;;2.78;0.95;;;;;;;;;;5037816;28;20137;-72
2022/04/12 12:57:05;;;;;;;2.38;1.00;;;;;;;;;;5032977;28;20148;-72
2022/04/12 12:59:32;;;;;;;4.55;1.10;;;;;;;;;;5040397;28;20128;-72
2022/04/12 13:02:09;;;;;;;1.83;1.02;;;;;;;;;;5037140;28;20141;-72
2022/04/12 13:04:36;;;;;;;3.20;1.40;;;;;;;;;;5038646;28;20049;-72
2022/04/12 13:07:13;;;;;;;2.35;1.05;;;;;;;;;;5037605;28;20144;-71
2022/04/12 13:09:44;;;;;;;3.47;1.17;;;;;;;;;;5036164;28;20168;-71
2022/04/12 13:12:11;;;;;;;1.98;1.17;;;;;;;;;;5034703;28;20136;-70
2022/04/12 13:14:38;;;;;;;1.88;0.90;;;;;;;;;;5036563;28;20168;-71
2022/04/12 13:17:04;;;;;;;2.83;1.40;;;;;;;;;;5034402;28;20088;-71
2022/04/12 13:19:32;;;;;;;4.68;1.38;;;;;;;;;;5037723;28;20140;-71
2022/04/12 13:21:59;;;;;;;1.77;1.08;;;;;;;;;;5040954;28;20095;-71
2022/04/12 13:24:27;;;;;;;2.85;1.10;;;;;;;;;;5038248;28;20136;-70
2022/04/12 13:26:54;;;;;;;;;;;;;;;;;;5035488;28;20570;-71
2022/04/12 13:29:21;;;;;;;4.38;1.17;;;;;;;;;;5036926;28;19971;-70
2022/04/12 13:31:48;;;;;;;3.50;1.52;;;;;;;;;;5037115;28;20091;-71
2022/04/12 13:34:15;;;;;;;3.65;1.25;;;;;;;;;;5035147;28;20141;-70
2022/04/12 13:36:43;;;;;;;2.05;1.08;;;;;;;;;;5040256;28;20083;-70
2022/04/12 13:39:09;;;;;;;4.38;1.30;;;;;;;;;;5038404;28;20080;-70
2022/04/12 13:41:37;;;;;;;3.22;1.05;;;;;;;;;;5037655;28;20580;-70
2022/04/12 13:44:03;;;;;;;3.67;1.40;;;;;;;;;;5035309;28;20144;-70
2022/04/12 13:46:51;;;;;;;1.15;0.80;;;;;;;;;;5038227;28;20042;-70
2022/04/12 13:49:20;;;;;;;3.33;1.10;;;;;;;;;;5037872;28;20109;-70
2022/04/12 13:51:46;;;;;;;2.33;0.93;;;;;;;;;;5037286;28;20140;-70
2022/04/12 13:54:13;;;;;;;2.85;0.93;;;;;;;;;;5035420;28;20493;-69
2022/04/12 13:56:41;;;;;;;3.88;1.50;;;;;;;;;;5039988;28;20096;-69
2022/04/12 13:59:08;;;;;;;4.55;1.33;;;;;;;;;;5037438;28;20172;-69
2022/04/12 14:01:34;;;;;;;3.17;1.08;;;;;;;;;;5039963;28;20132;-69
2022/04/12 14:04:03;;;;;;;4.10;1.63;;;;;;;;;;5041111;28;20068;-69
2022/04/12 14:06:30;;;;;;;3.72;1.40;;;;;;;;;;5041109;28;20099;-69
2022/04/12 14:08:56;;;;;;;3.05;1.10;;;;;;;;;;5037978;28;20605;-69
2022/04/12 14:11:25;;;;;;;7.03;1.38;;;;;;;;;;5035867;28;20136;-69
2022/04/12 14:13:51;;;;;;;3.85;1.42;;;;;;;;;;5043439;28;20084;-69
2022/04/12 14:16:19;;;;;;;2.20;1.00;;;;;;;;;;5045905;28;20087;-69
2022/04/12 14:18:47;;;;;;;2.47;1.35;;;;;;;;;;5042768;28;20065;-69
2022/04/12 14:21:14;;;;;;;6.65;1.20;;;;;;;;;;5039991;28;20163;-70
2022/04/12 14:23:44;;;;;;;7.05;0.82;;;;;;;;;;5042850;28;20060;-69
2022/04/12 14:26:18;;;;;;;2.90;1.25;;;;;;;;;;5043049;28;20053;-69
2022/04/12 14:28:44;;;;;;;3.63;1.30;;;;;;;;;;5043229;28;20087;-68
2022/04/12 14:31:11;;;;;;;5.78;1.27;;;;;;;;;;5041892;28;20137;-69
2022/04/12 14:33:38;;;;;;;5.30;1.42;;;;;;;;;;5046234;28;20059;-69
2022/04/12 14:36:08;;;;;;;5.63;1.40;;;;;;;;;;5039688;28;20044;-68
2022/04/12 14:38:36;;;;;;;5.20;1.35;;;;;;;;;;5038625;28;20085;-68
2022/04/12 14:41:02;;;;;;;;;;;;;;;;;;5041032;28;20140;-68
2022/04/12 14:43:29;;;;;;;2.80;1.02;;;;;;;;;;5031606;28;19960;-68
2022/04/12 14:45:57;;;;;;;3.27;1.23;;;;;;;;;;5039114;28;20160;-68
2022/04/12 14:48:23;;;;;;;4.65;1.73;;;;;;;;;;5039582;28;20187;-68